Terminal Aerodrome Forecast
Issued by NWS

Home | Current Version | Previous Version | Text Only | Print | Product List | Glossary On
Versions: 1 2 3 4 5 6 7 8 9 10 11 12 13 14 15 16 17 18 19 20 21 22 23
000
FTUS44 KHGX 201734
TAFCXO
TAF
KCXO 201734Z 2018/2118 12013G18KT P6SM VCSH BKN020
     FM202200 12011KT P6SM BKN035 OVC060
     FM210000 13005KT P6SM BKN040
     FM210600 14004KT 6SM BR SCT015 BKN025
      TEMPO 2111/2113 4SM BR BKN015
     FM211600 15009KT P6SM SCT040=

USA.gov is the U.S. government's official web portal to all federal, state and local government web resources and services.